createdAt,value
2023-02-18T00:00:51.572Z,100337.28
2023-02-18T00:03:51.575Z,100345.00
2023-02-18T00:06:51.545Z,100343.06
2023-02-18T00:09:52.534Z,100353.59
2023-02-18T00:12:52.589Z,100352.09
2023-02-18T00:15:52.612Z,100352.56
2023-02-18T00:18:53.586Z,100355.00
2023-02-18T00:21:53.514Z,100362.72
2023-02-18T00:24:53.542Z,100368.28
2023-02-18T00:27:53.551Z,100374.84
2023-02-18T00:30:56.588Z,100361.69
2023-02-18T00:33:57.534Z,100341.94
2023-02-18T00:36:57.531Z,100350.97
2023-02-18T00:39:58.576Z,100354.34
2023-02-18T00:42:58.548Z,100338.13
2023-02-18T00:45:58.606Z,100322.66
2023-02-18T00:48:58.537Z,100317.44
2023-02-18T00:51:58.522Z,100296.84
2023-02-18T00:54:59.548Z,100304.47
2023-02-18T00:57:59.575Z,100321.25
2023-02-18T01:00:59.536Z,100326.38
2023-02-18T01:03:59.580Z,100338.13
2023-02-18T01:06:59.571Z,100340.38
2023-02-18T01:09:59.551Z,100327.16
2023-02-18T01:12:59.586Z,100331.97
2023-02-18T01:15:59.539Z,100311.75
2023-02-18T01:18:59.584Z,100324.53
2023-02-18T01:21:59.530Z,100303.75
2023-02-18T01:25:00.544Z,100309.25
2023-02-18T01:28:00.569Z,100304.41
2023-02-18T01:31:00.567Z,100300.84
2023-02-18T01:34:00.535Z,100268.63
2023-02-18T01:37:00.592Z,100284.66
2023-02-18T01:40:01.551Z,100279.97
2023-02-18T01:43:01.585Z,100278.97
2023-02-18T01:46:20.656Z,100268.94
2023-02-18T01:49:20.595Z,100268.09
2023-02-18T01:52:23.574Z,100269.09
2023-02-18T01:55:23.547Z,100256.91
2023-02-18T01:58:24.572Z,100254.31
2023-02-18T02:01:24.575Z,100236.72
2023-02-18T02:04:24.568Z,100243.03
2023-02-18T02:07:24.562Z,100238.66
2023-02-18T02:10:25.579Z,100238.47
2023-02-18T02:14:03.524Z,100220.84
2023-02-18T02:17:17.574Z,100214.66
2023-02-18T02:20:36.576Z,100208.50
2023-02-18T02:23:59.574Z,100193.97
2023-02-18T02:26:59.536Z,100198.31
2023-02-18T02:30:29.570Z,100199.09
2023-02-18T02:34:08.515Z,100196.13
2023-02-18T02:37:07.539Z,100208.53
2023-02-18T02:40:35.522Z,100204.62
2023-02-18T02:43:47.561Z,100210.97
2023-02-18T02:46:58.556Z,100198.78
2023-02-18T02:50:20.570Z,100196.47
2023-02-18T02:53:28.570Z,100211.06
2023-02-18T02:56:30.565Z,100198.94
2023-02-18T02:59:37.529Z,100203.50
2023-02-18T03:02:37.580Z,100209.13
2023-02-18T03:05:49.567Z,100221.56
2023-02-18T03:09:01.586Z,100222.78
2023-02-18T03:12:12.528Z,100215.94
2023-02-18T03:15:33.574Z,100225.50
2023-02-18T03:18:55.564Z,100213.28
2023-02-18T03:21:57.576Z,100227.94
2023-02-18T03:25:03.538Z,100223.22
2023-02-18T03:28:24.559Z,100222.91
2023-02-18T03:31:27.704Z,100201.06
2023-02-18T03:34:30.585Z,100223.22
2023-02-18T03:37:30.566Z,100222.00
2023-02-18T03:40:31.559Z,100228.16
2023-02-18T03:43:31.577Z,100233.81
2023-02-18T03:46:31.584Z,100235.50
2023-02-18T03:49:31.549Z,100216.34
2023-02-18T03:52:31.561Z,100244.56
2023-02-18T03:55:31.553Z,100243.56
2023-02-18T03:58:31.522Z,100246.09
2023-02-18T04:01:31.587Z,100211.84
2023-02-18T04:04:31.569Z,100252.34
2023-02-18T04:07:31.570Z,100244.19
2023-02-18T04:10:31.562Z,100245.03
2023-02-18T04:13:31.562Z,100248.16
2023-02-18T04:16:31.546Z,100250.25
2023-02-18T04:19:31.580Z,100241.34
2023-02-18T04:22:31.528Z,100251.72
2023-02-18T04:25:31.550Z,100261.31
2023-02-18T04:28:31.525Z,100259.03
2023-02-18T04:31:31.655Z,100252.88
2023-02-18T04:34:31.532Z,100262.28
2023-02-18T04:37:31.568Z,100254.03
2023-02-18T04:40:33.551Z,100259.34
2023-02-18T04:43:33.525Z,100269.38
2023-02-18T04:46:33.653Z,100270.13
2023-02-18T04:49:33.536Z,100269.62
2023-02-18T04:52:33.562Z,100257.66
2023-02-18T04:55:33.556Z,100259.97
2023-02-18T04:58:33.575Z,100251.19
2023-02-18T05:01:33.568Z,100262.00
2023-02-18T05:04:33.509Z,100262.62
2023-02-18T05:07:33.527Z,100263.13
2023-02-18T05:10:33.551Z,100242.19
2023-02-18T05:13:33.575Z,100254.75
2023-02-18T05:16:33.512Z,100250.59
2023-02-18T05:19:33.572Z,100247.00
2023-02-18T05:22:33.538Z,100252.34
2023-02-18T05:25:33.554Z,100243.47
2023-02-18T05:28:33.566Z,100246.59
2023-02-18T05:31:33.612Z,100256.53
2023-02-18T05:34:33.515Z,100257.56
2023-02-18T05:37:33.576Z,100236.78
2023-02-18T05:40:33.533Z,100256.12
2023-02-18T05:43:33.532Z,100249.41
2023-02-18T05:46:33.570Z,100253.84
2023-02-18T05:49:33.584Z,100261.34
2023-02-18T05:52:33.585Z,100273.59
2023-02-18T05:55:33.523Z,100297.75
2023-02-18T05:58:33.518Z,100321.59
2023-02-18T06:01:33.514Z,100344.91
2023-02-18T06:04:33.537Z,100368.09
2023-02-18T06:07:33.538Z,100373.75
2023-02-18T06:10:33.542Z,100359.28
2023-02-18T06:13:26.593Z,100382.03
2023-02-18T06:16:26.639Z,100382.41
2023-02-18T06:19:26.560Z,100385.63
2023-02-18T06:22:26.557Z,100384.28
2023-02-18T06:25:26.539Z,100389.25
2023-02-18T06:28:26.553Z,100387.25
2023-02-18T06:31:26.659Z,100380.56
2023-02-18T06:34:26.522Z,100385.03
2023-02-18T06:37:26.540Z,100383.53
2023-02-18T06:40:26.511Z,100375.91
2023-02-18T06:43:26.558Z,100394.41
2023-02-18T06:46:26.546Z,100389.47
2023-02-18T06:49:26.521Z,100392.66
2023-02-18T06:52:26.536Z,100407.31
2023-02-18T06:55:26.538Z,100412.53
2023-02-18T06:58:26.522Z,100410.75
2023-02-18T07:01:26.556Z,100415.78
2023-02-18T07:04:26.564Z,100416.34
2023-02-18T07:07:26.513Z,100412.22
2023-02-18T07:10:26.547Z,100402.84
2023-02-18T07:13:26.517Z,100413.75
2023-02-18T07:16:26.598Z,100414.41
2023-02-18T07:19:26.513Z,100425.47
2023-02-18T07:22:26.533Z,100431.47
2023-02-18T07:25:26.511Z,100426.13
2023-02-18T07:28:26.533Z,100428.84
2023-02-18T07:31:26.636Z,100424.25
2023-02-18T07:34:19.539Z,100423.66
2023-02-18T07:36:58.591Z,100420.72
2023-02-18T07:39:49.521Z,100410.84
2023-02-18T07:42:36.575Z,100428.34
2023-02-18T07:45:36.596Z,100410.75
2023-02-18T07:48:36.565Z,100411.09
2023-02-18T07:51:36.554Z,100424.00
2023-02-18T07:54:36.575Z,100408.91
2023-02-18T07:57:36.543Z,100413.50
2023-02-18T08:00:36.553Z,100418.41
2023-02-18T08:03:39.522Z,100417.06
2023-02-18T08:06:41.537Z,100407.84
2023-02-18T08:09:41.582Z,100407.22
2023-02-18T08:12:41.504Z,100407.41
2023-02-18T08:15:41.558Z,100411.22
2023-02-18T08:18:34.640Z,100403.44
2023-02-18T08:21:36.588Z,100417.00
2023-02-18T08:24:36.557Z,100413.34
2023-02-18T08:27:36.520Z,100411.31
2023-02-18T08:30:36.693Z,100413.19
2023-02-18T08:33:37.570Z,100414.91
2023-02-18T08:36:37.536Z,100414.78
2023-02-18T08:39:39.590Z,100417.47
2023-02-18T08:42:39.527Z,100404.13
2023-02-18T08:45:39.531Z,100410.59
2023-02-18T08:48:40.552Z,100411.31
2023-02-18T08:51:40.540Z,100421.34
2023-02-18T08:54:40.526Z,100419.16
2023-02-18T08:57:41.513Z,100428.47
2023-02-18T09:00:41.574Z,100423.69
2023-02-18T09:03:41.601Z,100419.50
2023-02-18T09:06:41.579Z,100406.75
2023-02-18T09:09:41.567Z,100421.28
2023-02-18T09:12:42.564Z,100421.66
2023-02-18T09:15:42.564Z,100417.84
2023-02-18T09:18:42.549Z,100418.19
2023-02-18T09:21:42.535Z,100419.38
2023-02-18T09:24:42.543Z,100413.63
2023-02-18T09:27:42.574Z,100421.97
2023-02-18T09:30:42.644Z,100423.19
2023-02-18T09:33:44.252Z,100430.97
2023-02-18T09:36:45.533Z,100433.97
2023-02-18T09:39:45.566Z,100434.03
2023-02-18T09:42:46.539Z,100439.53
2023-02-18T09:45:46.537Z,100417.91
2023-02-18T09:48:48.541Z,100424.81
2023-02-18T09:51:48.582Z,100443.16
2023-02-18T09:54:48.551Z,100453.91
2023-02-18T09:57:58.574Z,100428.38
2023-02-18T10:01:00.563Z,100457.13
2023-02-18T10:04:00.560Z,100430.34
2023-02-18T10:07:01.583Z,100459.78
2023-02-18T10:10:02.526Z,100390.69
2023-02-18T10:13:02.600Z,100440.69
2023-02-18T10:16:03.568Z,100423.44
2023-02-18T10:19:07.582Z,100429.87
2023-02-18T10:22:08.581Z,100430.16
2023-02-18T10:25:11.544Z,100420.94
2023-02-18T10:28:12.532Z,100392.84
2023-02-18T10:31:23.600Z,100396.59
2023-02-18T10:34:35.540Z,100410.37
2023-02-18T10:37:47.567Z,100393.88
2023-02-18T10:41:08.742Z,100388.56
2023-02-18T10:44:14.549Z,100374.78
2023-02-18T10:47:51.598Z,100382.69
2023-02-18T10:50:48.549Z,100368.87
2023-02-18T10:53:52.541Z,100374.19
2023-02-18T10:56:53.577Z,100363.75
2023-02-18T10:59:53.528Z,100358.69
2023-02-18T11:02:53.570Z,100346.31
2023-02-18T11:05:53.554Z,100351.53
2023-02-18T11:08:57.544Z,100361.63
2023-02-18T11:12:07.830Z,100344.03
2023-02-18T11:15:24.550Z,100359.56
2023-02-18T11:18:38.596Z,100346.72
2023-02-18T11:21:45.530Z,100356.78
2023-02-18T11:24:45.582Z,100355.00
2023-02-18T11:27:53.540Z,100363.69
2023-02-18T11:30:55.596Z,100358.75
2023-02-18T11:33:57.555Z,100378.47
2023-02-18T11:36:57.576Z,100368.06
2023-02-18T11:39:59.540Z,100374.06
2023-02-18T11:42:52.640Z,100367.62
2023-02-18T11:45:52.532Z,100377.28
2023-02-18T11:48:52.577Z,100365.22
2023-02-18T11:51:53.571Z,100358.75
2023-02-18T11:54:53.536Z,100350.13
2023-02-18T11:57:56.588Z,100348.91
2023-02-18T12:01:00.575Z,100347.53
2023-02-18T12:04:11.547Z,100330.03
2023-02-18T12:07:30.565Z,100334.84
2023-02-18T12:10:37.582Z,100330.78
2023-02-18T12:14:10.532Z,100323.22
2023-02-18T12:17:21.587Z,100316.81
2023-02-18T12:20:35.581Z,100310.38
2023-02-18T12:23:47.580Z,100305.13
2023-02-18T12:27:18.522Z,100306.81
2023-02-18T12:30:40.579Z,100305.53
2023-02-18T12:33:42.580Z,100276.31
2023-02-18T12:36:51.590Z,100276.16
2023-02-18T12:40:08.546Z,100267.34
2023-02-18T12:43:51.603Z,100268.34
2023-02-18T12:47:10.560Z,100264.94
2023-02-18T12:50:39.558Z,100261.63
2023-02-18T12:53:45.560Z,100261.47
2023-02-18T12:57:18.553Z,100246.56
2023-02-18T13:00:31.874Z,100259.00
2023-02-18T13:04:03.589Z,100255.59
2023-02-18T13:07:12.568Z,100254.91
2023-02-18T13:10:32.547Z,100253.22
2023-02-18T13:13:32.593Z,100252.16
2023-02-18T13:16:33.609Z,100244.78
2023-02-18T13:19:39.585Z,100243.09
2023-02-18T13:22:40.603Z,100249.84
2023-02-18T13:25:40.594Z,100228.75
2023-02-18T13:29:04.592Z,100238.84
2023-02-18T13:32:19.444Z,100221.41
2023-02-18T13:35:49.555Z,100233.94
2023-02-18T13:39:12.571Z,100252.72
2023-02-18T13:42:44.600Z,100253.22
2023-02-18T13:45:46.652Z,100235.06
2023-02-18T13:48:54.588Z,100232.44
2023-02-18T13:52:04.551Z,100237.69
2023-02-18T13:55:04.537Z,100215.53
2023-02-18T13:58:07.541Z,100239.12
2023-02-18T14:01:16.548Z,100228.94
2023-02-18T14:04:16.576Z,100218.97
2023-02-18T14:07:38.576Z,100201.38
2023-02-18T14:10:42.582Z,100220.66
2023-02-18T14:13:55.564Z,100219.22
2023-02-18T14:17:32.538Z,100211.34
2023-02-18T14:20:34.624Z,100205.12
2023-02-18T14:23:34.577Z,100202.00
2023-02-18T14:26:49.579Z,100204.38
2023-02-18T14:29:49.571Z,100206.84
2023-02-18T14:32:53.555Z,100198.25
2023-02-18T14:36:09.584Z,100186.06
2023-02-18T14:39:21.554Z,100179.16
2023-02-18T14:42:46.578Z,100168.31
2023-02-18T14:45:46.564Z,100183.50
2023-02-18T14:49:15.550Z,100166.88
2023-02-18T14:52:16.581Z,100160.81
2023-02-18T14:55:19.594Z,100157.72
2023-02-18T14:58:29.572Z,100173.50
2023-02-18T15:01:38.651Z,100176.66
2023-02-18T15:04:39.565Z,100178.47
2023-02-18T15:07:39.600Z,100169.47
2023-02-18T15:10:48.563Z,100160.97
2023-02-18T15:13:53.560Z,100162.75
2023-02-18T15:16:53.561Z,100158.69
2023-02-18T15:20:01.565Z,100145.09
2023-02-18T15:23:01.589Z,100151.12
2023-02-18T15:26:04.585Z,100147.47
2023-02-18T15:29:19.586Z,100149.06
2023-02-18T15:32:30.546Z,100153.75
2023-02-18T15:35:32.587Z,100154.00
2023-02-18T15:38:33.574Z,100144.56
2023-02-18T15:41:36.542Z,100135.59
2023-02-18T15:44:39.550Z,100131.00
2023-02-18T15:47:39.592Z,100125.50
2023-02-18T15:50:45.594Z,100129.34
2023-02-18T15:53:45.580Z,100125.06
2023-02-18T15:56:50.557Z,100105.88
2023-02-18T15:59:57.557Z,100126.06
2023-02-18T16:03:06.584Z,100115.63
2023-02-18T16:06:26.577Z,100114.34
2023-02-18T16:09:29.583Z,100124.16
2023-02-18T16:12:43.555Z,100102.44
2023-02-18T16:15:44.560Z,100078.25
2023-02-18T16:18:53.550Z,100103.59
2023-02-18T16:21:57.601Z,100098.09
2023-02-18T16:24:58.555Z,100089.31
2023-02-18T16:28:01.580Z,100072.53
2023-02-18T16:31:01.606Z,100080.25
2023-02-18T16:34:02.576Z,100072.66
2023-02-18T16:37:20.589Z,100094.94
2023-02-18T16:40:35.571Z,100093.41
2023-02-18T16:43:39.564Z,100086.72
2023-02-18T16:46:39.602Z,100080.28
2023-02-18T16:49:39.544Z,100076.38
2023-02-18T16:52:39.543Z,100079.59
2023-02-18T16:55:41.556Z,100075.97
2023-02-18T16:58:41.551Z,100069.34
2023-02-18T17:01:43.602Z,100074.22
2023-02-18T17:04:43.598Z,100087.97
2023-02-18T17:07:43.567Z,100088.69
2023-02-18T17:10:43.575Z,100088.69
2023-02-18T17:13:43.589Z,100077.72
2023-02-18T17:16:43.635Z,100070.59
2023-02-18T17:19:43.553Z,100057.94
2023-02-18T17:22:43.567Z,100063.94
2023-02-18T17:25:47.583Z,100075.38
2023-02-18T17:28:47.565Z,100075.75
2023-02-18T17:31:53.622Z,100049.88
2023-02-18T17:34:53.585Z,100066.91
2023-02-18T17:37:53.587Z,100065.81
2023-02-18T17:40:53.571Z,100052.00
2023-02-18T17:43:53.601Z,100029.06
2023-02-18T17:46:53.577Z,100037.91
2023-02-18T17:49:53.608Z,100028.13
2023-02-18T17:52:53.598Z,100033.97
2023-02-18T17:55:54.562Z,100024.81
2023-02-18T17:58:55.565Z,100024.56
2023-02-18T18:01:55.611Z,100022.75
2023-02-18T18:04:55.589Z,100023.50
2023-02-18T18:07:56.589Z,100000.97
2023-02-18T18:11:12.547Z,100013.66
2023-02-18T18:14:12.608Z,99994.44
2023-02-18T18:17:12.560Z,100001.94
2023-02-18T18:20:12.611Z,99989.28
2023-02-18T18:23:13.602Z,100002.50
2023-02-18T18:26:13.605Z,99983.03
2023-02-18T18:29:13.570Z,99974.62
2023-02-18T18:32:13.575Z,99985.25
2023-02-18T18:35:13.586Z,99987.09
2023-02-18T18:38:13.591Z,99982.38
2023-02-18T18:41:13.583Z,99975.94
2023-02-18T18:44:13.566Z,99983.75
2023-02-18T18:47:13.579Z,99969.00
2023-02-18T18:50:13.552Z,99953.06
2023-02-18T18:53:13.576Z,99930.53
2023-02-18T18:56:17.600Z,99916.91
2023-02-18T18:59:17.618Z,99942.34
2023-02-18T19:02:17.573Z,99934.75
2023-02-18T19:05:17.578Z,99940.50
2023-02-18T19:08:18.581Z,99953.59
2023-02-18T19:11:18.630Z,99959.22
2023-02-18T19:14:18.598Z,99975.56
2023-02-18T19:17:18.561Z,99966.00
2023-02-18T19:20:18.613Z,99957.69
2023-02-18T19:23:18.559Z,99961.25
2023-02-18T19:26:18.567Z,99954.84
2023-02-18T19:29:18.557Z,99944.72
2023-02-18T19:32:18.570Z,99943.62
2023-02-18T19:35:18.571Z,99962.06
2023-02-18T19:38:21.610Z,99965.63
2023-02-18T19:41:23.627Z,99948.37
2023-02-18T19:44:23.581Z,99914.91
2023-02-18T19:47:23.601Z,99941.94
2023-02-18T19:50:27.588Z,99952.19
2023-02-18T19:53:27.551Z,99954.56
2023-02-18T19:56:27.600Z,99924.56
2023-02-18T19:59:27.596Z,99894.09
2023-02-18T20:02:28.585Z,99889.78
2023-02-18T20:05:28.595Z,99922.28
2023-02-18T20:08:28.554Z,99933.34
2023-02-18T20:11:28.616Z,99930.72
2023-02-18T20:14:30.560Z,99928.91
2023-02-18T20:17:30.618Z,99932.34
2023-02-18T20:20:30.560Z,99898.44
2023-02-18T20:23:30.621Z,99918.63
2023-02-18T20:26:30.566Z,99924.34
2023-02-18T20:29:30.565Z,99915.38
2023-02-18T20:32:30.668Z,99935.09
2023-02-18T20:35:30.577Z,99940.78
2023-02-18T20:38:30.570Z,99946.00
2023-02-18T20:41:30.559Z,99968.31
2023-02-18T20:44:32.617Z,99955.28
2023-02-18T20:47:32.607Z,99979.28
2023-02-18T20:50:32.597Z,99982.06
2023-02-18T20:53:32.563Z,100001.84
2023-02-18T20:56:33.579Z,100000.78
2023-02-18T20:59:35.601Z,99991.59
2023-02-18T21:02:35.611Z,99992.34
2023-02-18T21:05:35.567Z,100005.09
2023-02-18T21:08:35.589Z,100003.37
2023-02-18T21:11:37.575Z,99994.78
2023-02-18T21:14:37.602Z,99994.25
2023-02-18T21:17:37.611Z,100006.03
2023-02-18T21:20:37.581Z,100014.31
2023-02-18T21:23:37.593Z,100008.97
2023-02-18T21:26:39.578Z,100007.09
2023-02-18T21:29:39.609Z,100002.69
2023-02-18T21:32:39.594Z,99991.28
2023-02-18T21:35:39.589Z,99982.56
2023-02-18T21:38:39.564Z,99980.50
2023-02-18T21:41:41.282Z,99989.41
2023-02-18T21:44:42.918Z,99978.66
2023-02-18T21:47:42.596Z,99994.63
2023-02-18T21:50:42.585Z,99992.94
2023-02-18T21:53:42.617Z,99998.31
2023-02-18T21:56:42.556Z,100007.78
2023-02-18T21:59:43.568Z,100007.06
2023-02-18T22:02:45.599Z,100012.09
2023-02-18T22:05:45.608Z,100011.44
2023-02-18T22:08:45.619Z,100011.25
2023-02-18T22:11:45.589Z,100006.00
2023-02-18T22:14:45.604Z,100024.28
2023-02-18T22:17:45.558Z,100033.50
2023-02-18T22:20:45.577Z,100026.63
2023-02-18T22:23:45.610Z,100036.78
2023-02-18T22:26:45.598Z,100038.62
2023-02-18T22:29:45.570Z,100049.84
2023-02-18T22:32:45.562Z,100056.03
2023-02-18T22:35:46.562Z,100059.81
2023-02-18T22:38:47.589Z,100067.44
2023-02-18T22:41:47.564Z,100065.75
2023-02-18T22:44:47.587Z,100066.28
2023-02-18T22:47:47.577Z,100064.44
2023-02-18T22:50:47.594Z,100066.00
2023-02-18T22:53:47.569Z,100068.91
2023-02-18T22:56:47.586Z,100047.91
2023-02-18T22:59:47.580Z,100065.50
2023-02-18T23:02:47.559Z,100077.81
2023-02-18T23:05:47.606Z,100069.34
2023-02-18T23:08:47.609Z,100073.94
2023-02-18T23:11:47.574Z,100076.53
2023-02-18T23:14:47.598Z,100072.13
2023-02-18T23:17:47.543Z,100070.44
2023-02-18T23:21:06.603Z,100072.94
2023-02-18T23:24:07.571Z,100062.19
2023-02-18T23:27:07.601Z,100081.78
2023-02-18T23:30:07.622Z,100076.69
2023-02-18T23:33:07.561Z,100077.72
2023-02-18T23:36:07.618Z,100078.13
2023-02-18T23:39:09.612Z,100078.16
2023-02-18T23:42:02.681Z,100078.06
2023-02-18T23:45:02.610Z,100085.34
2023-02-18T23:48:02.626Z,100074.31
2023-02-18T23:51:02.637Z,100075.72
2023-02-18T23:54:02.607Z,100076.03
2023-02-18T23:57:02.554Z,100086.16
